McKinney, TX

3:34 PM CST en Enero 30, 2015 (GMT -0600)
Collin County Regional | Change Station
CLOSE
Current Station
Aeropuerto
Location: McKinney,
Altura: 584 ft
Estaciones meteorológicas cercanas

Alt 584 ft 33.18 °N, 96.59 °W | Updated 41 minutes ago

Clear
Despejado
57 ° F
Sensación térmica 57 ° F
N
7
Viento Variable Viento desde ENE

Hoy
Alta -- | Baja -- ° F
--% Posibilidad de precipitaciones
Ayer
Alta -- | Baja -- ° F
Precip. -- pul
7:23 AM 5:56 PM
Gibosa creciente, 85% visible
Presión 30.40 pul
Visibilidad 10.0 Millas
Nubes Despejado
Punto de rocío 31 ° F
Humedad 37%
Precipitaciones 0.00 pul
Espesor de la nieve No disponible.
UV 3 de una escala de 12
Polen 7.00 de una escala de 12
Calidad del aire No disponible.
Flu Activity No disponible.
METAR KTKI 302053Z 06006KT 10SM CLR 14/M01 A3037 RMK AO2 SLP293 T01391006 56034

More Conditions Fewer Conditions

Presión 30.40 pul
Visibilidad 10.0 Millas
Nubes Despejado
Punto de rocío 31 ° F
Humedad 37%
Precipitaciones 0.00 pul
Espesor de la nieve No disponible.
UV 3 de una escala de 12
Polen 7.00 de una escala de 12
Calidad del aire No disponible.
Flu Activity No disponible.
METAR KTKI 302053Z 06006KT 10SM CLR 14/M01 A3037 RMK AO2 SLP293 T01391006 56034

More Conditions Fewer Conditions

10-Day Weather Forecast

Almanac

Astronomía

Jan. 30, 2015 Salida Puesta
Hora real
Crepúsculo civil
Crepúsculo náutico
Crepúsculo astronómico
Luna
Horas de luz
Horas de luz
Tomorrow will be .
, % of the Moon is Illuminated

Extremos de hoy

Máximos del estado Bajos del estado

Community

WunderPhotos

Upload Photos

1,791,897 ¡fotos cargadas!

WunderBlogs® & News

Nearby

Calidad del aire

  Calidad del aire Índice AQ Contaminante
Not available.

Grosos de nieve

Estación Profundido Altura

Actividad de terremotos

Ciudad Distance Mag. Tiempo y dato
Magnitud mínima muestra es 2,5.

Temperaturas de aguas costeras

Lugar Temperatura

Estaciones meteorológicas cercanas